Flood From: 24-01-2018 06:00 Until: 25-01-2018 06:00 warning for: Flood Level: Yellow info button

Although rather usual in this region, locally or potentially dangerous phenomena are expected. (such as local winds, summer thunderstorms, rising streams or high waves) Be aware and pay attention to the latest weather updates, especially if you carry out activities exposed to weather or close to a stream or shoreline. 


Meteo18 Weather Cam more information Meteo18 Weather Cam


Thunder radar more information blitzortung!


Rain radar more information rain snow radar


Visit our other weather sites:

Template documentation
and downloads

And another site



Weather Underground History page Text

Daily Summary for March 15, 2016 Units:  Metric    English   Both
« Previous Day
Next Day »
Daily Weekly Monthly Yearly Custom
  High: Low: Average:
Temperature: 11.6 °C -0.8 °C 5.7 °C
Dew Point: 4.1 °C -1.9 °C 1.3 °C
Humidity: 94 % 56 % 75 %
Wind Speed: 20.9 km/h 0.0 km/h 2.9 km/h
Wind Gust: 22.5 km/h - -
Wind:- - ENE
Pressure: 1023.2 hPa 1017.8 hPa -
Precipitation: 0.0 mm    
Historical Graphs
 
 
Tabular Data for March 15, 2016
Time Temperature Dew Point Pressure Wind Wind Speed Wind Gust Humidity Rainfall Rate (Hourly)
00:02 2.3 °C 0.5 °C 1022.9 hPa Calm   1.6 km/h 88 % 0.0 mm
00:12 2.3 °C 0.5 °C 1022.9 hPa Calm   1.6 km/h 88 % 0.0 mm
00:17 2.1 °C 0.2 °C 1022.9 hPa Calm   1.6 km/h 87 % 0.0 mm
00:22 1.8 °C 0.0 °C 1022.9 hPa Calm   1.6 km/h 88 % 0.0 mm
00:27 1.6 °C 0.0 °C 1022.9 hPa Calm   1.6 km/h 89 % 0.0 mm
00:32 1.4 °C -0.2 °C 1022.6 hPa Calm   1.6 km/h 89 % 0.0 mm
00:37 1.4 °C -0.1 °C 1022.9 hPa Calm   1.6 km/h 90 % 0.0 mm
00:42 1.5 °C 0.0 °C 1022.9 hPa Calm   1.6 km/h 90 % 0.0 mm
00:47 1.4 °C -0.1 °C 1022.6 hPa Calm   1.6 km/h 90 % 0.0 mm
00:52 1.3 °C -0.2 °C 1022.6 hPa Calm   1.6 km/h 90 % 0.0 mm
00:57 1.3 °C -0.2 °C 1022.6 hPa NE 3.2 km/h 3.2 km/h 90 % 0.0 mm
01:02 1.3 °C 0.0 °C 1022.6 hPa Calm   3.2 km/h 91 % 0.0 mm
01:12 1.4 °C 0.1 °C 1022.6 hPa Calm   3.2 km/h 91 % 0.0 mm
01:17 1.4 °C -0.1 °C 1022.6 hPa ESE 1.6 km/h 3.2 km/h 90 % 0.0 mm
01:22 1.4 °C -0.1 °C 1022.6 hPa Calm   3.2 km/h 90 % 0.0 mm
01:32 1.2 °C -0.1 °C 1022.9 hPa Calm   1.6 km/h 91 % 0.0 mm
01:37 1.4 °C 0.1 °C 1022.9 hPa Calm   3.2 km/h 91 % 0.0 mm
01:42 1.6 °C 0.1 °C 1022.9 hPa Calm   3.2 km/h 90 % 0.0 mm
01:47 1.5 °C -0.1 °C 1022.9 hPa Calm   3.2 km/h 89 % 0.0 mm
01:52 1.5 °C 0.0 °C 1022.9 hPa Calm   1.6 km/h 90 % 0.0 mm
01:57 1.3 °C -0.3 °C 1022.9 hPa Calm   1.6 km/h 89 % 0.0 mm
02:02 1.3 °C -0.2 °C 1022.9 hPa Calm   1.6 km/h 90 % 0.0 mm
02:07 1.1 °C -0.5 °C 1022.9 hPa Calm   3.2 km/h 89 % 0.0 mm
02:12 1.1 °C -0.4 °C 1022.9 hPa Calm   3.2 km/h 90 % 0.0 mm
02:17 0.9 °C -0.6 °C 1022.9 hPa Calm   3.2 km/h 90 % 0.0 mm
02:22 0.8 °C -0.8 °C 1022.6 hPa ENE 1.6 km/h 1.6 km/h 89 % 0.0 mm
02:32 0.7 °C -0.6 °C 1022.6 hPa Calm   3.2 km/h 91 % 0.0 mm
02:37 0.7 °C -0.6 °C 1022.6 hPa Calm   3.2 km/h 91 % 0.0 mm
02:42 0.8 °C -0.5 °C 1022.6 hPa Calm   1.6 km/h 91 % 0.0 mm
02:47 0.7 °C -0.6 °C 1022.6 hPa East 1.6 km/h 1.6 km/h 91 % 0.0 mm
02:52 0.7 °C -0.6 °C 1022.6 hPa NE 1.6 km/h 1.6 km/h 91 % 0.0 mm
02:57 0.5 °C -0.9 °C 1022.6 hPa Calm   3.2 km/h 90 % 0.0 mm
03:02 0.6 °C -0.7 °C 1022.6 hPa Calm   3.2 km/h 91 % 0.0 mm
03:07 0.7 °C -0.5 °C 1022.2 hPa Calm   1.6 km/h 92 % 0.0 mm
03:12 0.8 °C -0.5 °C 1022.6 hPa Calm   1.6 km/h 91 % 0.0 mm
03:17 0.7 °C -0.8 °C 1022.6 hPa Calm   1.6 km/h 90 % 0.0 mm
03:27 0.4 °C -1.0 °C 1022.6 hPa Calm     90 % 0.0 mm
03:32 0.3 °C -1.0 °C 1022.6 hPa Calm     91 % 0.0 mm
03:42 0.4 °C -0.9 °C 1022.6 hPa Calm     91 % 0.0 mm
03:47 0.1 °C -1.3 °C 1022.6 hPa NE 1.6 km/h   90 % 0.0 mm
03:52 -0.1 °C -1.4 °C 1022.6 hPa Calm   3.2 km/h 91 % 0.0 mm
04:02 -0.1 °C -1.2 °C 1022.6 hPa Calm   3.2 km/h 92 % 0.0 mm
04:07 0.2 °C -0.8 °C 1022.6 hPa Calm   1.6 km/h 93 % 0.0 mm
04:12 0.6 °C -0.4 °C 1022.9 hPa ENE 3.2 km/h 3.2 km/h 93 % 0.0 mm
04:17 0.7 °C -0.5 °C 1022.9 hPa Calm   4.8 km/h 92 % 0.0 mm
04:22 0.9 °C -0.3 °C 1022.6 hPa Calm   4.8 km/h 92 % 0.0 mm
04:27 1.0 °C -0.3 °C 1022.6 hPa Calm   4.8 km/h 91 % 0.0 mm
04:32 1.1 °C -0.4 °C 1022.6 hPa Calm   3.2 km/h 90 % 0.0 mm
04:42 0.8 °C -0.7 °C 1022.6 hPa Calm   1.6 km/h 90 % 0.0 mm
04:47 0.6 °C -0.9 °C 1022.6 hPa Calm     90 % 0.0 mm
04:52 0.4 °C -1.0 °C 1022.6 hPa Calm     90 % 0.0 mm
04:57 0.2 °C -1.2 °C 1022.6 hPa Calm     90 % 0.0 mm
05:02 0.1 °C -1.3 °C 1022.9 hPa Calm     90 % 0.0 mm
05:07 -0.1 °C -1.4 °C 1022.9 hPa Calm     91 % 0.0 mm
05:12 -0.3 °C -1.6 °C 1022.9 hPa Calm     91 % 0.0 mm
05:17 -0.4 °C -1.7 °C 1022.9 hPa Calm     91 % 0.0 mm
05:22 -0.4 °C -1.5 °C 1022.9 hPa Calm     92 % 0.0 mm
05:32 -0.6 °C -1.7 °C 1022.9 hPa Calm     92 % 0.0 mm
05:37 -0.6 °C -1.6 °C 1022.9 hPa Calm     93 % 0.0 mm
05:42 -0.7 °C -1.8 °C 1023.2 hPa Calm     92 % 0.0 mm
05:47 -0.8 °C -1.9 °C 1022.9 hPa Calm     92 % 0.0 mm
05:52 -0.6 °C -1.4 °C 1022.9 hPa Calm     94 % 0.0 mm
05:57 -0.3 °C -1.3 °C 1022.9 hPa Calm   1.6 km/h 93 % 0.0 mm
06:02 -0.2 °C -1.2 °C 1022.9 hPa Calm   1.6 km/h 93 % 0.0 mm
06:12 0.0 °C -1.1 °C 1022.9 hPa Calm   1.6 km/h 92 % 0.0 mm
06:17 0.2 °C -0.9 °C 1022.9 hPa Calm   1.6 km/h 92 % 0.0 mm
06:22 0.3 °C -1.1 °C 1023.2 hPa Calm   1.6 km/h 90 % 0.0 mm
06:27 0.1 °C -1.3 °C 1022.9 hPa Calm   1.6 km/h 90 % 0.0 mm
06:32 0.0 °C -1.4 °C 1023.2 hPa Calm   1.6 km/h 90 % 0.0 mm
06:37 -0.1 °C -1.4 °C 1022.9 hPa Calm   1.6 km/h 91 % 0.0 mm
06:42 -0.1 °C -1.4 °C 1022.9 hPa Calm   1.6 km/h 91 % 0.0 mm
06:47 -0.2 °C -1.5 °C 1023.2 hPa Calm   1.6 km/h 91 % 0.0 mm
06:52 -0.1 °C -1.4 °C 1023.2 hPa Calm   1.6 km/h 91 % 0.0 mm
06:57 -0.1 °C -1.5 °C 1023.2 hPa Calm   1.6 km/h 90 % 0.0 mm
07:02 -0.1 °C -1.5 °C 1023.2 hPa Calm   1.6 km/h 90 % 0.0 mm
07:07 -0.2 °C -1.6 °C 1023.2 hPa Calm   1.6 km/h 90 % 0.0 mm
07:12 -0.2 °C -1.6 °C 1023.2 hPa Calm   3.2 km/h 90 % 0.0 mm
07:17 -0.2 °C -1.5 °C 1023.2 hPa Calm   3.2 km/h 91 % 0.0 mm
07:22 -0.2 °C -1.5 °C 1023.2 hPa Calm   1.6 km/h 91 % 0.0 mm
07:27 -0.2 °C -1.5 °C 1023.2 hPa Calm   1.6 km/h 91 % 0.0 mm
07:32 -0.2 °C -1.5 °C 1023.2 hPa Calm   1.6 km/h 91 % 0.0 mm
07:37 -0.1 °C -1.2 °C 1023.2 hPa Calm   1.6 km/h 92 % 0.0 mm
07:42 0.1 °C -1.2 °C 1023.2 hPa East 1.6 km/h 1.6 km/h 91 % 0.0 mm
07:47 0.2 °C -1.1 °C 1023.2 hPa Calm   3.2 km/h 91 % 0.0 mm
07:52 0.3 °C -1.0 °C 1023.2 hPa Calm   3.2 km/h 91 % 0.0 mm
07:57 0.4 °C -0.9 °C 1023.2 hPa Calm   3.2 km/h 91 % 0.0 mm
08:02 0.4 °C -0.9 °C 1023.2 hPa Calm   1.6 km/h 91 % 0.0 mm
08:07 0.6 °C -0.7 °C 1023.2 hPa Calm   1.6 km/h 91 % 0.0 mm
08:12 0.8 °C -0.5 °C 1023.2 hPa Calm   3.2 km/h 91 % 0.0 mm
08:17 1.0 °C -0.5 °C 1023.2 hPa Calm   3.2 km/h 90 % 0.0 mm
08:22 1.3 °C -0.2 °C 1023.2 hPa ENE 3.2 km/h 3.2 km/h 90 % 0.0 mm
08:27 1.5 °C -0.1 °C 1023.2 hPa Calm   3.2 km/h 89 % 0.0 mm
08:32 1.8 °C 0.0 °C 1023.2 hPa Calm   3.2 km/h 88 % 0.0 mm
08:37 2.1 °C 0.3 °C 1023.2 hPa SE 1.6 km/h 3.2 km/h 88 % 0.0 mm
08:42 2.4 °C 0.5 °C 1023.2 hPa Calm   3.2 km/h 87 % 0.0 mm
08:47 3.0 °C 0.6 °C 1023.2 hPa Calm   3.2 km/h 84 % 0.0 mm
08:52 3.4 °C 0.6 °C 1023.2 hPa NE 1.6 km/h 1.6 km/h 82 % 0.0 mm
08:57 3.7 °C 0.6 °C 1023.2 hPa NE 1.6 km/h 4.8 km/h 80 % 0.0 mm
09:02 3.9 °C 0.9 °C 1023.2 hPa Calm   4.8 km/h 81 % 0.0 mm
09:07 4.2 °C 1.1 °C 1023.2 hPa NNE 1.6 km/h 4.8 km/h 80 % 0.0 mm
09:12 4.5 °C 1.0 °C 1023.2 hPa Calm   3.2 km/h 78 % 0.0 mm
09:17 4.8 °C 1.3 °C 1023.2 hPa NE 4.8 km/h 4.8 km/h 78 % 0.0 mm
09:22 5.0 °C 1.3 °C 1023.2 hPa Calm   4.8 km/h 77 % 0.0 mm
09:27 5.2 °C 1.7 °C 1023.2 hPa ENE 1.6 km/h 9.7 km/h 78 % 0.0 mm
09:37 6.0 °C 1.7 °C 1023.2 hPa ENE 3.2 km/h 8.0 km/h 74 % 0.0 mm
09:42 6.2 °C 1.9 °C 1023.2 hPa NE 3.2 km/h 6.4 km/h 74 % 0.0 mm
09:52 6.7 °C 2.0 °C 1023.2 hPa NNE 1.6 km/h 4.8 km/h 72 % 0.0 mm
10:02 7.1 °C 2.2 °C 1023.2 hPa Calm   4.8 km/h 71 % 0.0 mm
10:12 7.4 °C 2.1 °C 1023.2 hPa ENE 1.6 km/h 4.8 km/h 69 % 0.0 mm
10:22 8.2 °C 2.6 °C 1023.2 hPa Calm   4.8 km/h 68 % 0.0 mm
10:32 8.3 °C 2.1 °C 1022.9 hPa NE 3.2 km/h 6.4 km/h 65 % 0.0 mm
10:37 8.7 °C 2.5 °C 1022.9 hPa NNW 1.6 km/h 6.4 km/h 65 % 0.0 mm
10:42 9.2 °C 2.5 °C 1022.9 hPa Calm   4.8 km/h 63 % 0.0 mm
10:52 9.0 °C 1.9 °C 1022.9 hPa Calm   9.7 km/h 61 % 0.0 mm
10:57 9.2 °C 2.3 °C 1022.9 hPa North 1.6 km/h 9.7 km/h 62 % 0.0 mm
11:02 9.4 °C 2.7 °C 1022.6 hPa SE 1.6 km/h 8.0 km/h 63 % 0.0 mm
11:12 9.4 °C 1.8 °C 1022.9 hPa ENE 1.6 km/h 9.7 km/h 59 % 0.0 mm
11:17 9.6 °C 2.2 °C 1022.9 hPa ENE 3.2 km/h 9.7 km/h 60 % 0.0 mm
11:22 9.5 °C 2.6 °C 1022.9 hPa ENE 4.8 km/h 12.9 km/h 62 % 0.0 mm
11:27 9.6 °C 2.7 °C 1022.6 hPa East 3.2 km/h 12.9 km/h 62 % 0.0 mm
11:32 9.7 °C 2.5 °C 1022.6 hPa Calm   12.9 km/h 61 % 0.0 mm
11:37 9.8 °C 2.2 °C 1022.6 hPa East 1.6 km/h 11.3 km/h 59 % 0.0 mm
11:42 9.9 °C 2.3 °C 1022.6 hPa Calm   8.0 km/h 59 % 0.0 mm
11:52 10.2 °C 2.5 °C 1022.2 hPa NE 6.4 km/h 8.0 km/h 59 % 0.0 mm
11:57 10.2 °C 3.0 °C 1022.6 hPa NNE 1.6 km/h 8.0 km/h 61 % 0.0 mm
12:02 10.4 °C 3.2 °C 1022.2 hPa NE 1.6 km/h 8.0 km/h 61 % 0.0 mm
12:07 10.5 °C 2.1 °C 1022.2 hPa Calm   8.0 km/h 56 % 0.0 mm
12:12 10.4 °C 2.7 °C 1022.2 hPa ENE 1.6 km/h 12.9 km/h 59 % 0.0 mm
12:17 10.4 °C 3.0 °C 1022.2 hPa NNE 4.8 km/h 12.9 km/h 60 % 0.0 mm
12:22 10.5 °C 3.3 °C 1022.2 hPa NE 1.6 km/h 12.9 km/h 61 % 0.0 mm
12:27 10.5 °C 2.8 °C 1022.2 hPa ENE 9.7 km/h 12.9 km/h 59 % 0.0 mm
12:37 10.4 °C 2.5 °C 1021.9 hPa NE 9.7 km/h 12.9 km/h 58 % 0.0 mm
12:42 10.6 °C 2.9 °C 1021.9 hPa NE 12.9 km/h 19.3 km/h 59 % 0.0 mm
12:52 10.6 °C 2.9 °C 1021.9 hPa NE 6.4 km/h 19.3 km/h 59 % 0.0 mm
12:57 10.7 °C 3.2 °C 1021.9 hPa East 3.2 km/h 17.7 km/h 60 % 0.0 mm
13:02 10.6 °C 3.4 °C 1021.9 hPa SE 3.2 km/h 17.7 km/h 61 % 0.0 mm
13:07 10.7 °C 3.0 °C 1021.6 hPa NE 9.7 km/h 17.7 km/h 59 % 0.0 mm
13:12 10.9 °C 3.2 °C 1021.6 hPa NE 6.4 km/h 14.5 km/h 59 % 0.0 mm
13:17 10.9 °C 3.4 °C 1021.6 hPa ENE 8.0 km/h 16.1 km/h 60 % 0.0 mm
13:27 11.2 °C 4.0 °C 1021.6 hPa ENE 6.4 km/h 14.5 km/h 61 % 0.0 mm
13:32 11.1 °C 3.4 °C 1021.6 hPa NE 6.4 km/h 14.5 km/h 59 % 0.0 mm
13:42 11.1 °C 3.9 °C 1021.2 hPa ESE 6.4 km/h 17.7 km/h 61 % 0.0 mm
13:47 11.0 °C 3.8 °C 1021.2 hPa ESE 6.4 km/h 17.7 km/h 61 % 0.0 mm
13:52 11.1 °C 4.1 °C 1021.2 hPa ENE 8.0 km/h 17.7 km/h 62 % 0.0 mm
14:02 11.4 °C 3.9 °C 1020.9 hPa ENE 4.8 km/h 19.3 km/h 60 % 0.0 mm
14:07 11.5 °C 3.8 °C 1020.9 hPa ENE 3.2 km/h 16.1 km/h 59 % 0.0 mm
14:12 11.6 °C 3.4 °C 1020.9 hPa ENE 4.8 km/h 14.5 km/h 57 % 0.0 mm
14:17 11.6 °C 4.1 °C 1020.9 hPa NE 9.7 km/h 19.3 km/h 60 % 0.0 mm
14:22 11.4 °C 3.4 °C 1020.9 hPa ENE 8.0 km/h 19.3 km/h 58 % 0.0 mm
14:32 11.3 °C 3.1 °C 1020.5 hPa ENE 3.2 km/h 17.7 km/h 57 % 0.0 mm
14:37 11.3 °C 3.6 °C 1020.5 hPa ENE 8.0 km/h 17.7 km/h 59 % 0.0 mm
14:42 11.4 °C 2.9 °C 1020.5 hPa NE 9.7 km/h 19.3 km/h 56 % 0.0 mm
14:47 11.4 °C 3.4 °C 1020.5 hPa NE 14.5 km/h 19.3 km/h 58 % 0.0 mm
14:52 11.3 °C 4.1 °C 1020.5 hPa NE 6.4 km/h 19.3 km/h 61 % 0.0 mm
15:02 11.4 °C 3.7 °C 1020.5 hPa NE 19.3 km/h 20.9 km/h 59 % 0.0 mm
15:12 11.4 °C 3.7 °C 1020.5 hPa East 6.4 km/h 20.9 km/h 59 % 0.0 mm
15:17 11.4 °C 3.4 °C 1020.5 hPa NE 3.2 km/h 19.3 km/h 58 % 0.0 mm
15:22 11.4 °C 3.7 °C 1020.2 hPa NNE 3.2 km/h 16.1 km/h 59 % 0.0 mm
15:27 11.2 °C 3.5 °C 1020.2 hPa NNE 6.4 km/h 14.5 km/h 59 % 0.0 mm
15:32 11.2 °C 3.7 °C 1020.2 hPa ENE 3.2 km/h 16.1 km/h 60 % 0.0 mm
15:42 11.2 °C 3.7 °C 1020.2 hPa NE 11.3 km/h 16.1 km/h 60 % 0.0 mm
15:47 11.2 °C 3.7 °C 1020.2 hPa NE 20.9 km/h 20.9 km/h 60 % 0.0 mm
15:52 11.1 °C 3.4 °C 1019.9 hPa NNE 11.3 km/h 22.5 km/h 59 % 0.0 mm
15:57 11.0 °C 3.3 °C 1020.2 hPa NE 12.9 km/h 22.5 km/h 59 % 0.0 mm
16:02 10.9 °C 3.2 °C 1020.2 hPa NNE 11.3 km/h 22.5 km/h 59 % 0.0 mm
16:17 10.7 °C 3.2 °C 1019.9 hPa NE 12.9 km/h 17.7 km/h 60 % 0.0 mm
16:22 10.6 °C 2.9 °C 1019.9 hPa ENE 6.4 km/h 17.7 km/h 59 % 0.0 mm
16:27 10.4 °C 3.4 °C 1019.9 hPa ESE 4.8 km/h 17.7 km/h 62 % 0.0 mm
16:32 10.3 °C 2.9 °C 1019.9 hPa ENE 12.9 km/h 17.7 km/h 60 % 0.0 mm
16:37 10.3 °C 3.1 °C 1019.9 hPa East 14.5 km/h 16.1 km/h 61 % 0.0 mm
16:42 10.3 °C 3.1 °C 1019.9 hPa NE 6.4 km/h 19.3 km/h 61 % 0.0 mm
16:47 10.6 °C 3.2 °C 1019.5 hPa NE 12.9 km/h 19.3 km/h 60 % 0.0 mm
16:52 10.6 °C 3.2 °C 1019.5 hPa NNE 12.9 km/h 19.3 km/h 60 % 0.0 mm
16:57 10.4 °C 3.0 °C 1019.5 hPa NE 12.9 km/h 19.3 km/h 60 % 0.0 mm
17:02 10.4 °C 3.4 °C 1019.5 hPa NE 3.2 km/h 17.7 km/h 62 % 0.0 mm
17:12 10.2 °C 3.2 °C 1019.5 hPa NNE 8.0 km/h 17.7 km/h 62 % 0.0 mm
17:17 10.1 °C 2.9 °C 1019.5 hPa East 6.4 km/h 14.5 km/h 61 % 0.0 mm
17:22 9.9 °C 3.0 °C 1019.5 hPa NE 4.8 km/h 14.5 km/h 62 % 0.0 mm
17:32 9.7 °C 3.0 °C 1019.2 hPa North 12.9 km/h 19.3 km/h 63 % 0.0 mm
17:37 9.6 °C 3.1 °C 1019.5 hPa NE 9.7 km/h 22.5 km/h 64 % 0.0 mm
17:42 9.5 °C 2.8 °C 1019.2 hPa East 8.0 km/h 22.5 km/h 63 % 0.0 mm
17:47 9.4 °C 2.9 °C 1019.2 hPa East 6.4 km/h 22.5 km/h 64 % 0.0 mm
17:52 9.2 °C 2.7 °C 1019.2 hPa NNE 14.5 km/h 17.7 km/h 64 % 0.0 mm
17:57 9.2 °C 2.7 °C 1019.2 hPa ENE 3.2 km/h 17.7 km/h 64 % 0.0 mm
18:02 9.1 °C 2.9 °C 1019.2 hPa East 4.8 km/h 16.1 km/h 65 % 0.0 mm
18:07 9.0 °C 2.6 °C 1019.2 hPa NNE 3.2 km/h 16.1 km/h 64 % 0.0 mm
18:12 8.9 °C 2.7 °C 1019.2 hPa ENE 11.3 km/h 16.1 km/h 65 % 0.0 mm
18:17 8.8 °C 2.6 °C 1019.5 hPa SE 3.2 km/h 16.1 km/h 65 % 0.0 mm
18:22 8.7 °C 2.5 °C 1019.5 hPa ENE 3.2 km/h 16.1 km/h 65 % 0.0 mm
18:27 8.7 °C 2.3 °C 1019.5 hPa NNE 3.2 km/h 16.1 km/h 64 % 0.0 mm
18:32 8.6 °C 2.2 °C 1019.5 hPa ESE 3.2 km/h 14.5 km/h 64 % 0.0 mm
18:37 8.3 °C 2.3 °C 1019.5 hPa North 3.2 km/h 16.1 km/h 66 % 0.0 mm
18:42 8.2 °C 2.0 °C 1019.5 hPa ENE 3.2 km/h 16.1 km/h 65 % 0.0 mm
18:52 8.2 °C 1.8 °C 1019.5 hPa ENE 6.4 km/h 16.1 km/h 64 % 0.0 mm
19:02 8.1 °C 1.5 °C 1019.5 hPa North 9.7 km/h 14.5 km/h 63 % 0.0 mm
19:07 8.1 °C 1.3 °C 1019.5 hPa ENE 6.4 km/h 14.5 km/h 62 % 0.0 mm
19:12 8.1 °C 1.3 °C 1019.5 hPa East 3.2 km/h 14.5 km/h 62 % 0.0 mm
19:17 8.1 °C 1.3 °C 1019.5 hPa ESE 1.6 km/h 12.9 km/h 62 % 0.0 mm
19:22 7.9 °C 1.1 °C 1019.5 hPa East 1.6 km/h 12.9 km/h 62 % 0.0 mm
19:32 7.9 °C 1.1 °C 1019.2 hPa ENE 1.6 km/h 11.3 km/h 62 % 0.0 mm
19:42 8.0 °C 1.4 °C 1019.2 hPa NE 4.8 km/h 9.7 km/h 63 % 0.0 mm
19:47 8.0 °C 1.2 °C 1019.2 hPa East 1.6 km/h 9.7 km/h 62 % 0.0 mm
19:52 7.9 °C 1.3 °C 1019.2 hPa SE 1.6 km/h 8.0 km/h 63 % 0.0 mm
19:57 7.9 °C 1.3 °C 1019.2 hPa East 1.6 km/h 8.0 km/h 63 % 0.0 mm
20:02 7.9 °C 1.3 °C 1019.2 hPa NE 1.6 km/h 8.0 km/h 63 % 0.0 mm
20:07 7.8 °C 1.4 °C 1018.8 hPa NE 1.6 km/h 8.0 km/h 64 % 0.0 mm
20:12 7.7 °C 1.5 °C 1018.8 hPa NE 3.2 km/h 6.4 km/h 65 % 0.0 mm
20:17 7.7 °C 1.5 °C 1018.8 hPa Calm   4.8 km/h 65 % 0.0 mm
20:22 7.7 °C 1.5 °C 1018.8 hPa Calm   4.8 km/h 65 % 0.0 mm
20:27 7.6 °C 1.7 °C 1018.8 hPa NE 3.2 km/h 4.8 km/h 66 % 0.0 mm
20:32 7.7 °C 1.5 °C 1018.8 hPa NE 1.6 km/h 4.8 km/h 65 % 0.0 mm
20:37 7.7 °C 1.5 °C 1018.8 hPa NE 1.6 km/h 4.8 km/h 65 % 0.0 mm
20:42 7.7 °C 1.7 °C 1018.5 hPa NE 3.2 km/h 4.8 km/h 66 % 0.0 mm
20:47 7.7 °C 1.7 °C 1018.5 hPa SSE 3.2 km/h 6.4 km/h 66 % 0.0 mm
20:52 7.8 °C 1.8 °C 1018.5 hPa Calm   6.4 km/h 66 % 0.0 mm
20:57 7.8 °C 1.8 °C 1018.5 hPa ENE 1.6 km/h 6.4 km/h 66 % 0.0 mm
21:02 7.7 °C 2.0 °C 1018.5 hPa Calm   6.4 km/h 67 % 0.0 mm
21:07 7.7 °C 2.0 °C 1018.5 hPa NE 1.6 km/h 4.8 km/h 67 % 0.0 mm
21:12 7.7 °C 2.0 °C 1018.2 hPa NNE 1.6 km/h 4.8 km/h 67 % 0.0 mm
21:17 7.8 °C 1.8 °C 1018.5 hPa ENE 1.6 km/h 6.4 km/h 66 % 0.0 mm
21:22 7.9 °C 1.9 °C 1018.5 hPa Calm   6.4 km/h 66 % 0.0 mm
21:32 8.0 °C 1.8 °C 1018.5 hPa Calm   6.4 km/h 65 % 0.0 mm
21:42 8.0 °C 1.8 °C 1018.5 hPa East 1.6 km/h 11.3 km/h 65 % 0.0 mm
21:52 8.1 °C 2.1 °C 1018.5 hPa East 3.2 km/h 11.3 km/h 66 % 0.0 mm
21:57 8.1 °C 2.3 °C 1018.2 hPa SE 1.6 km/h 11.3 km/h 67 % 0.0 mm
22:02 7.9 °C 1.9 °C 1018.2 hPa Calm   6.4 km/h 66 % 0.0 mm
22:07 7.9 °C 1.9 °C 1018.2 hPa ESE 1.6 km/h 6.4 km/h 66 % 0.0 mm
22:12 7.9 °C 1.7 °C 1018.2 hPa Calm   6.4 km/h 65 % 0.0 mm
22:17 7.9 °C 2.2 °C 1018.2 hPa NNE 3.2 km/h 6.4 km/h 67 % 0.0 mm
22:22 7.8 °C 2.1 °C 1018.2 hPa Calm   6.4 km/h 67 % 0.0 mm
22:32 7.8 °C 2.7 °C 1018.2 hPa NNE 1.6 km/h 9.7 km/h 70 % 0.0 mm
22:37 7.7 °C 2.6 °C 1018.2 hPa NNW 1.6 km/h 9.7 km/h 70 % 0.0 mm
22:47 7.6 °C 3.1 °C 1018.2 hPa SSE 1.6 km/h 8.0 km/h 73 % 0.0 mm
22:52 7.4 °C 2.9 °C 1018.2 hPa ESE 3.2 km/h 8.0 km/h 73 % 0.0 mm
22:57 7.5 °C 2.8 °C 1018.2 hPa SE 3.2 km/h 12.9 km/h 72 % 0.0 mm
23:02 7.5 °C 3.0 °C 1018.2 hPa NE 3.2 km/h 14.5 km/h 73 % 0.0 mm
23:07 7.4 °C 3.3 °C 1018.2 hPa NE 4.8 km/h 14.5 km/h 75 % 0.0 mm
23:12 7.3 °C 3.5 °C 1018.2 hPa NNE 3.2 km/h 14.5 km/h 77 % 0.0 mm
23:17 7.2 °C 3.6 °C 1018.2 hPa NNW 4.8 km/h 11.3 km/h 78 % 0.0 mm
23:22 7.0 °C 3.4 °C 1018.2 hPa ENE 4.8 km/h 11.3 km/h 78 % 0.0 mm
23:32 6.9 °C 3.5 °C 1017.8 hPa NE 1.6 km/h 14.5 km/h 79 % 0.0 mm
23:37 6.9 °C 3.7 °C 1017.8 hPa NE 8.0 km/h 16.1 km/h 80 % 0.0 mm
23:42 6.9 °C 3.7 °C 1017.8 hPa ENE 3.2 km/h 16.1 km/h 80 % 0.0 mm
23:47 6.9 °C 3.7 °C 1017.8 hPa NE 3.2 km/h 16.1 km/h 80 % 0.0 mm
23:52 6.8 °C 3.6 °C 1017.8 hPa NNW 9.7 km/h 17.7 km/h 80 % 0.0 mm
23:57 6.7 °C 3.5 °C 1017.8 hPa ENE 3.2 km/h 20.9 km/h 80 % 0.0 mm
Meteo18
Compliments of Weather Underground - 4 mb

Script developed by  Jim McMurry - jmcmurry@mwt.net Adapted for the template by  Wim van der Kuil - Leuven-Template.eu

You find our weather info also at:

European Weather Network

Weather Underground

Equipment we use:

Weather-station
Davis Vue

Weather-program
Meteobridge

Weather-server
Raspberry PI 2 B+

Provider
1 and 1

Davis Vue

Meteobridge

Raspberry PI 2 B+

1 and 1